createdAt,value
2017-08-05T00:01:33.899Z,68.60
2017-08-05T00:04:01.398Z,68.60
2017-08-05T00:06:28.897Z,68.30
2017-08-05T00:08:56.424Z,68.50
2017-08-05T00:11:23.931Z,68.50
2017-08-05T00:13:52.193Z,68.90
2017-08-05T00:16:20.471Z,69.10
2017-08-05T00:18:48.754Z,69.30
2017-08-05T00:21:17.031Z,69.10
2017-08-05T00:23:45.308Z,69.70
2017-08-05T00:26:13.802Z,69.70
2017-08-05T00:28:42.075Z,69.70
2017-08-05T00:31:10.363Z,70.00
2017-08-05T00:33:37.861Z,69.90
2017-08-05T00:36:05.373Z,70.10
2017-08-05T00:38:32.879Z,70.00
2017-08-05T00:41:00.375Z,70.10
2017-08-05T00:43:28.678Z,70.80
2017-08-05T00:45:56.196Z,70.80
2017-08-05T00:48:23.728Z,71.00
2017-08-05T00:50:51.234Z,71.10
2017-08-05T00:53:19.489Z,71.40
2017-08-05T00:55:47.034Z,71.30
2017-08-05T00:58:14.497Z,71.10
2017-08-05T01:00:42.010Z,71.40
2017-08-05T01:03:09.516Z,71.30
2017-08-05T01:05:37.020Z,71.50
2017-08-05T01:08:04.659Z,71.90
2017-08-05T01:10:32.217Z,72.00
2017-08-05T01:12:59.730Z,72.50
2017-08-05T01:15:27.212Z,72.60
2017-08-05T01:17:54.724Z,72.70
2017-08-05T01:20:22.235Z,73.10
2017-08-05T01:22:49.719Z,72.90
2017-08-05T01:25:17.221Z,73.30
2017-08-05T01:27:44.789Z,73.40
2017-08-05T01:30:12.278Z,73.70
2017-08-05T01:32:39.776Z,74.10
2017-08-05T01:35:07.270Z,74.00
2017-08-05T01:37:34.785Z,74.50
2017-08-05T01:40:03.100Z,74.90
2017-08-05T01:42:30.585Z,74.80
2017-08-05T01:44:58.086Z,75.10
2017-08-05T01:47:25.581Z,74.90
2017-08-05T01:49:53.090Z,75.20
2017-08-05T01:52:21.381Z,75.60
2017-08-05T01:54:48.867Z,75.60
2017-08-05T01:57:16.384Z,75.70
2017-08-05T01:59:43.918Z,75.70
2017-08-05T02:02:11.427Z,76.00
2017-08-05T02:04:38.959Z,76.60
2017-08-05T02:07:06.459Z,76.70
2017-08-05T02:09:33.974Z,76.70
2017-08-05T02:12:02.229Z,76.50
2017-08-05T02:14:29.738Z,76.90
2017-08-05T02:16:57.304Z,77.20
2017-08-05T02:19:24.966Z,77.30
2017-08-05T02:21:52.462Z,77.30
2017-08-05T02:24:19.977Z,77.80
2017-08-05T02:26:47.459Z,78.00
2017-08-05T02:29:14.968Z,78.20
2017-08-05T02:31:42.628Z,78.40
2017-08-05T02:34:10.110Z,78.40
2017-08-05T02:36:37.598Z,78.80
2017-08-05T02:39:05.107Z,78.70
2017-08-05T02:41:32.629Z,78.40
2017-08-05T02:44:00.131Z,79.00
2017-08-05T02:46:27.690Z,79.00
2017-08-05T02:48:55.984Z,79.50
2017-08-05T02:51:23.502Z,79.00
2017-08-05T02:53:50.981Z,78.70
2017-08-05T02:56:18.522Z,78.80
2017-08-05T02:58:46.052Z,78.90
2017-08-05T03:01:13.567Z,79.20
2017-08-05T03:03:41.079Z,79.40
2017-08-05T03:06:08.623Z,79.70
2017-08-05T03:08:36.128Z,79.90
2017-08-05T03:11:03.621Z,80.30
2017-08-05T03:13:31.118Z,80.20
2017-08-05T03:15:58.830Z,80.40
2017-08-05T03:18:27.082Z,81.00
2017-08-05T03:20:54.580Z,81.00
2017-08-05T03:23:22.070Z,82.00
2017-08-05T03:25:49.573Z,80.90
2017-08-05T03:28:17.093Z,81.00
2017-08-05T03:30:44.599Z,81.50
2017-08-05T03:33:12.870Z,81.70
2017-08-05T03:35:41.155Z,82.80
2017-08-05T03:38:09.431Z,81.70
2017-08-05T03:40:37.712Z,81.80
2017-08-05T03:43:06.001Z,81.40
2017-08-05T03:45:33.532Z,81.40
2017-08-05T03:48:01.014Z,81.20
2017-08-05T03:50:28.539Z,80.80
2017-08-05T03:52:56.055Z,80.20
2017-08-05T03:55:23.551Z,80.40
2017-08-05T03:57:51.045Z,80.40
2017-08-05T04:00:18.554Z,80.00
2017-08-05T04:02:46.153Z,80.20
2017-08-05T04:05:13.650Z,79.70
2017-08-05T04:07:41.172Z,79.80
2017-08-05T04:10:09.469Z,79.40
2017-08-05T04:12:36.961Z,79.40
2017-08-05T04:15:04.459Z,79.40
2017-08-05T04:17:31.962Z,79.40
2017-08-05T04:19:59.784Z,79.10
2017-08-05T04:22:27.272Z,79.10
2017-08-05T04:24:54.959Z,79.30
2017-08-05T04:27:22.465Z,79.20
2017-08-05T04:29:49.975Z,79.10
2017-08-05T04:32:17.458Z,79.00
2017-08-05T04:34:44.955Z,79.10
2017-08-05T04:37:12.476Z,79.20
2017-08-05T04:39:39.987Z,79.20
2017-08-05T04:42:07.499Z,78.80
2017-08-05T04:44:34.992Z,78.60
2017-08-05T04:47:02.506Z,78.00
2017-08-05T04:49:30.020Z,78.70
2017-08-05T04:51:57.542Z,78.50
2017-08-05T04:54:25.033Z,78.30
2017-08-05T04:56:52.536Z,78.40
2017-08-05T04:59:20.049Z,78.20
2017-08-05T05:01:48.462Z,78.10
2017-08-05T05:04:15.976Z,78.00
2017-08-05T05:06:43.466Z,78.10
2017-08-05T05:09:10.967Z,77.60
2017-08-05T05:11:38.490Z,77.00
2017-08-05T05:14:05.970Z,77.50
2017-08-05T05:16:33.572Z,77.50
2017-08-05T05:19:01.101Z,77.40
2017-08-05T05:21:28.622Z,76.90
2017-08-05T05:23:56.140Z,77.10
2017-08-05T05:26:23.656Z,76.50
2017-08-05T05:28:51.150Z,76.20
2017-08-05T05:31:18.650Z,76.00
2017-08-05T05:33:46.159Z,75.70
2017-08-05T05:36:13.714Z,76.30
2017-08-05T05:38:41.221Z,76.40
2017-08-05T05:41:09.494Z,76.40
2017-08-05T05:43:36.996Z,76.30
2017-08-05T05:46:04.502Z,75.80
2017-08-05T05:48:31.986Z,75.60
2017-08-05T05:50:59.501Z,75.10
2017-08-05T05:53:27.011Z,75.40
2017-08-05T05:55:54.508Z,75.20
2017-08-05T05:58:22.018Z,74.90
2017-08-05T06:00:49.541Z,75.30
2017-08-05T06:03:17.377Z,74.50
2017-08-05T06:05:44.859Z,74.50
2017-08-05T06:08:12.387Z,75.00
2017-08-05T06:10:39.963Z,73.80
2017-08-05T06:13:07.492Z,73.40
2017-08-05T06:15:34.983Z,73.10
2017-08-05T06:18:02.479Z,74.10
2017-08-05T06:20:29.999Z,72.90
2017-08-05T06:22:57.530Z,73.10
2017-08-05T06:25:25.027Z,72.60
2017-08-05T06:27:52.530Z,71.10
2017-08-05T06:30:20.030Z,71.50
2017-08-05T06:32:47.510Z,71.60
2017-08-05T06:35:15.033Z,69.60
2017-08-05T06:37:42.522Z,71.00
2017-08-05T06:40:10.045Z,72.20
2017-08-05T06:42:37.642Z,71.70
2017-08-05T06:45:05.144Z,72.10
2017-08-05T06:47:32.699Z,70.90
2017-08-05T06:50:01.161Z,67.00
2017-08-05T06:52:28.715Z,66.80
2017-08-05T06:54:56.207Z,65.60
2017-08-05T06:57:23.708Z,65.40
2017-08-05T06:59:51.182Z,66.30
2017-08-05T07:02:18.716Z,64.50
2017-08-05T07:04:46.239Z,64.70
2017-08-05T07:07:14.523Z,65.60
2017-08-05T07:09:42.011Z,65.60
2017-08-05T07:12:09.526Z,66.20
2017-08-05T07:14:37.838Z,65.10
2017-08-05T07:17:05.316Z,65.80
2017-08-05T07:19:32.814Z,65.70
2017-08-05T07:22:00.320Z,65.80
2017-08-05T07:24:27.823Z,64.90
2017-08-05T07:26:55.325Z,65.10
2017-08-05T07:29:22.823Z,65.50
2017-08-05T07:31:50.337Z,64.10
2017-08-05T07:34:17.838Z,63.30
2017-08-05T07:36:45.347Z,61.80
2017-08-05T07:39:12.843Z,61.50
2017-08-05T07:41:40.355Z,62.60
2017-08-05T07:44:07.834Z,61.40
2017-08-05T07:46:35.704Z,62.20
2017-08-05T07:49:03.280Z,62.40
2017-08-05T07:51:30.833Z,59.40
2017-08-05T07:53:58.322Z,58.50
2017-08-05T07:56:25.840Z,59.40
2017-08-05T07:58:54.309Z,59.30
2017-08-05T08:01:22.563Z,58.90
2017-08-05T08:03:50.124Z,58.90
2017-08-05T08:06:17.625Z,59.10
2017-08-05T08:08:45.131Z,59.50
2017-08-05T08:11:12.607Z,60.50
2017-08-05T08:13:40.931Z,60.90
2017-08-05T08:16:08.564Z,60.40
2017-08-05T08:18:36.848Z,60.40
2017-08-05T08:21:04.631Z,60.40
2017-08-05T08:23:32.170Z,60.70
2017-08-05T08:25:59.800Z,61.20
2017-08-05T08:28:28.160Z,62.10
2017-08-05T08:30:55.665Z,61.00
2017-08-05T08:33:23.170Z,59.30
2017-08-05T08:35:50.675Z,59.50
2017-08-05T08:38:18.969Z,59.60
2017-08-05T08:40:46.623Z,59.60
2017-08-05T08:43:14.968Z,58.50
2017-08-05T08:45:43.983Z,58.50
2017-08-05T08:48:12.309Z,59.40
2017-08-05T08:50:40.839Z,59.40
2017-08-05T08:53:08.317Z,58.90
2017-08-05T08:55:37.034Z,58.90
2017-08-05T08:58:04.552Z,58.00
2017-08-05T09:00:32.813Z,57.80
2017-08-05T09:03:00.304Z,57.40
2017-08-05T09:05:28.044Z,56.40
2017-08-05T09:07:55.587Z,55.90
2017-08-05T09:10:23.075Z,56.30
2017-08-05T09:12:51.339Z,55.70
2017-08-05T09:15:19.119Z,55.60
2017-08-05T09:17:53.088Z,54.60
2017-08-05T09:20:20.583Z,55.80
2017-08-05T09:22:48.068Z,54.50
2017-08-05T09:25:15.880Z,54.80
2017-08-05T09:27:43.401Z,54.80
2017-08-05T09:30:10.913Z,55.20
2017-08-05T09:32:38.478Z,55.20
2017-08-05T09:35:05.998Z,55.40
2017-08-05T09:37:33.518Z,55.20
2017-08-05T09:40:01.031Z,55.20
2017-08-05T09:42:28.518Z,55.20
2017-08-05T09:44:56.017Z,54.70
2017-08-05T09:47:23.503Z,54.90
2017-08-05T09:49:51.011Z,55.10
2017-08-05T09:52:18.565Z,54.70
2017-08-05T09:54:46.076Z,55.10
2017-08-05T09:57:13.580Z,55.00
2017-08-05T09:59:41.850Z,53.90
2017-08-05T10:02:10.135Z,54.00
2017-08-05T10:04:38.388Z,54.10
2017-08-05T10:07:05.917Z,54.10
2017-08-05T10:09:33.565Z,54.40
2017-08-05T10:12:01.068Z,55.00
2017-08-05T10:14:28.540Z,54.50
2017-08-05T10:16:56.120Z,55.20
2017-08-05T10:19:23.623Z,54.30
2017-08-05T10:21:51.101Z,54.00
2017-08-05T10:24:18.628Z,53.20
2017-08-05T10:26:46.215Z,53.60
2017-08-05T10:29:13.712Z,54.40
2017-08-05T10:31:41.206Z,54.60
2017-08-05T10:34:08.742Z,55.10
2017-08-05T10:36:36.239Z,55.40
2017-08-05T10:39:03.764Z,56.10
2017-08-05T10:41:31.295Z,56.60
2017-08-05T10:43:59.555Z,57.80
2017-08-05T10:46:27.060Z,57.20
2017-08-05T10:48:54.569Z,58.00
2017-08-05T10:51:22.138Z,58.00
2017-08-05T10:53:49.718Z,57.80
2017-08-05T10:56:17.252Z,58.10
2017-08-05T10:58:44.723Z,58.20
2017-08-05T11:01:12.997Z,58.30
2017-08-05T11:03:40.515Z,58.30
2017-08-05T11:06:08.041Z,58.50
2017-08-05T11:08:35.549Z,58.70
2017-08-05T11:11:03.082Z,59.10
2017-08-05T11:13:30.590Z,59.30
2017-08-05T11:15:58.164Z,59.70
2017-08-05T11:18:26.413Z,62.60
2017-08-05T11:20:53.939Z,62.30
2017-08-05T11:23:21.459Z,63.90
2017-08-05T11:25:48.967Z,65.90
2017-08-05T11:28:16.512Z,67.40
2017-08-05T11:30:44.047Z,68.50
2017-08-05T11:33:11.706Z,69.70
2017-08-05T11:35:39.220Z,70.70
2017-08-05T11:38:06.716Z,72.30
2017-08-05T11:40:34.991Z,75.40
2017-08-05T11:43:03.380Z,77.90
2017-08-05T11:45:30.877Z,77.40
2017-08-05T11:47:58.400Z,78.30
2017-08-05T11:50:26.645Z,83.00
2017-08-05T11:52:54.278Z,82.50
2017-08-05T11:55:21.948Z,83.80
2017-08-05T11:57:49.602Z,85.10
2017-08-05T12:00:17.162Z,85.40
2017-08-05T12:02:44.655Z,85.40
2017-08-05T12:05:12.363Z,86.00
2017-08-05T12:07:39.901Z,87.40
2017-08-05T12:10:08.207Z,87.30
2017-08-05T12:12:35.733Z,87.20
2017-08-05T12:15:03.258Z,86.60
2017-08-05T12:17:30.796Z,85.80
2017-08-05T12:19:58.323Z,84.60
2017-08-05T12:22:26.405Z,84.30
2017-08-05T12:24:53.903Z,83.20
2017-08-05T12:27:21.385Z,82.90
2017-08-05T12:29:49.004Z,83.00
2017-08-05T12:32:16.668Z,83.00
2017-08-05T12:34:44.175Z,82.90
2017-08-05T12:37:11.692Z,83.00
2017-08-05T12:39:39.191Z,83.40
2017-08-05T12:42:06.727Z,82.80
2017-08-05T12:44:34.258Z,80.70
2017-08-05T12:47:01.758Z,79.60
2017-08-05T12:49:29.255Z,78.80
2017-08-05T12:51:57.592Z,77.70
2017-08-05T12:54:25.131Z,77.10
2017-08-05T12:56:52.618Z,77.50
2017-08-05T12:59:20.120Z,77.80
2017-08-05T13:01:47.646Z,78.20
2017-08-05T13:04:15.260Z,79.20
2017-08-05T13:06:42.840Z,81.10
2017-08-05T13:09:10.322Z,82.30
2017-08-05T13:11:37.903Z,83.00
2017-08-05T13:14:06.216Z,82.20
2017-08-05T13:16:33.782Z,82.10
2017-08-05T13:19:01.310Z,82.30
2017-08-05T13:21:29.623Z,80.50
2017-08-05T13:23:57.185Z,80.40
2017-08-05T13:26:24.826Z,80.00
2017-08-05T13:28:52.414Z,80.60
2017-08-05T13:31:19.959Z,80.00
2017-08-05T13:33:47.458Z,79.80
2017-08-05T13:36:14.973Z,79.30
2017-08-05T13:38:42.466Z,79.40
2017-08-05T13:41:09.956Z,79.00
2017-08-05T13:43:37.460Z,79.30
2017-08-05T13:46:04.975Z,79.60
2017-08-05T13:48:33.266Z,83.20
2017-08-05T13:51:00.778Z,82.30
2017-08-05T13:53:28.260Z,82.90
2017-08-05T13:55:55.791Z,84.00
2017-08-05T13:58:23.302Z,84.50
2017-08-05T14:00:50.875Z,84.90
2017-08-05T14:03:18.521Z,85.70
2017-08-05T14:05:46.385Z,86.70
2017-08-05T14:08:13.933Z,86.80
2017-08-05T14:10:42.255Z,88.80
2017-08-05T14:13:09.774Z,89.00
2017-08-05T14:15:37.255Z,90.00
2017-08-05T14:18:04.810Z,90.70
2017-08-05T14:20:32.292Z,92.00
2017-08-05T14:22:59.828Z,92.20
2017-08-05T14:25:27.378Z,93.00
2017-08-05T14:27:55.030Z,93.40
2017-08-05T14:30:23.451Z,94.10
2017-08-05T14:32:51.051Z,94.10
2017-08-05T14:35:18.621Z,94.20
2017-08-05T14:37:46.207Z,93.60
2017-08-05T14:40:13.899Z,93.70
2017-08-05T14:42:41.415Z,93.80
2017-08-05T14:45:09.743Z,93.40
2017-08-05T14:47:37.481Z,93.40
2017-08-05T14:50:05.183Z,93.10
2017-08-05T14:52:32.835Z,93.10
2017-08-05T14:55:00.391Z,93.30
2017-08-05T14:57:27.957Z,93.20
2017-08-05T14:59:55.503Z,91.90
2017-08-05T15:02:23.258Z,92.00
2017-08-05T15:04:50.792Z,91.60
2017-08-05T15:07:19.067Z,91.50
2017-08-05T15:09:47.368Z,91.70
2017-08-05T15:12:14.865Z,91.70
2017-08-05T15:14:42.720Z,92.00
2017-08-05T15:17:10.246Z,90.90
2017-08-05T15:19:37.772Z,90.50
2017-08-05T15:22:05.278Z,90.90
2017-08-05T15:24:32.778Z,90.70
2017-08-05T15:27:00.285Z,90.80
2017-08-05T15:29:27.805Z,91.20
2017-08-05T15:31:55.325Z,91.80
2017-08-05T15:34:22.889Z,91.60
2017-08-05T15:36:50.387Z,90.60
2017-08-05T15:39:17.917Z,90.40
2017-08-05T15:41:45.428Z,90.80
2017-08-05T15:44:12.971Z,90.40
2017-08-05T15:46:40.500Z,90.20
2017-08-05T15:49:08.116Z,90.00
2017-08-05T15:51:36.403Z,90.10
2017-08-05T15:54:03.903Z,90.00
2017-08-05T15:56:31.427Z,89.30
2017-08-05T15:58:58.939Z,89.00
2017-08-05T16:01:26.435Z,89.50
2017-08-05T16:03:53.948Z,89.50
2017-08-05T16:06:21.424Z,89.90
2017-08-05T16:08:48.955Z,89.20
2017-08-05T16:11:17.595Z,88.60
2017-08-05T16:13:45.088Z,88.30
2017-08-05T16:16:12.730Z,89.60
2017-08-05T16:18:40.568Z,89.80
2017-08-05T16:21:08.271Z,88.40
2017-08-05T16:23:35.792Z,88.10
2017-08-05T16:26:04.069Z,88.10
2017-08-05T16:28:32.401Z,88.30
2017-08-05T16:30:59.898Z,87.40
2017-08-05T16:33:27.403Z,87.00
2017-08-05T16:35:54.935Z,86.40
2017-08-05T16:38:23.551Z,85.30
2017-08-05T16:40:51.087Z,85.20
2017-08-05T16:43:18.605Z,85.00
2017-08-05T16:45:46.111Z,87.30
2017-08-05T16:48:13.791Z,87.70
2017-08-05T16:50:41.305Z,87.50
2017-08-05T16:53:09.570Z,86.40
2017-08-05T16:55:37.080Z,86.20
2017-08-05T16:58:04.623Z,86.80
2017-08-05T17:00:32.142Z,88.00
2017-08-05T17:02:59.642Z,88.00
2017-08-05T17:05:27.136Z,87.20
2017-08-05T17:07:54.659Z,85.90
2017-08-05T17:10:22.172Z,84.50
2017-08-05T17:12:49.661Z,83.80
2017-08-05T17:15:17.954Z,82.00
2017-08-05T17:17:45.500Z,81.20
2017-08-05T17:20:13.019Z,80.70
2017-08-05T17:22:40.511Z,81.50
2017-08-05T17:25:08.809Z,84.00
2017-08-05T17:27:36.310Z,83.70
2017-08-05T17:30:03.918Z,83.70
2017-08-05T17:32:32.183Z,83.20
2017-08-05T17:34:59.693Z,83.10
2017-08-05T17:37:27.190Z,83.50
2017-08-05T17:39:54.671Z,84.70
2017-08-05T17:42:22.180Z,85.50
2017-08-05T17:44:49.700Z,85.60
2017-08-05T17:47:17.219Z,84.50
2017-08-05T17:49:44.707Z,86.20
2017-08-05T17:52:12.214Z,86.80
2017-08-05T17:54:39.728Z,86.60
2017-08-05T17:57:08.036Z,88.50
2017-08-05T17:59:35.571Z,88.40
2017-08-05T18:02:03.084Z,89.50
2017-08-05T18:04:30.612Z,90.00
2017-08-05T18:06:58.114Z,90.40
2017-08-05T18:09:25.652Z,91.10
2017-08-05T18:11:53.166Z,91.00
2017-08-05T18:14:21.451Z,91.10
2017-08-05T18:16:49.853Z,91.10
2017-08-05T18:19:17.361Z,91.10
2017-08-05T18:21:44.871Z,91.50
2017-08-05T18:24:12.396Z,91.80
2017-08-05T18:26:39.948Z,91.70
2017-08-05T18:29:08.227Z,92.00
2017-08-05T18:31:36.469Z,92.40
2017-08-05T18:34:03.964Z,92.10
2017-08-05T18:36:32.238Z,92.30
2017-08-05T18:39:00.529Z,92.30
2017-08-05T18:41:28.846Z,92.60
2017-08-05T18:43:57.513Z,92.60
2017-08-05T18:46:25.000Z,92.90
2017-08-05T18:48:52.716Z,93.10
2017-08-05T18:51:20.369Z,93.30
2017-08-05T18:53:47.911Z,93.20
2017-08-05T18:56:16.172Z,93.10
2017-08-05T18:58:43.650Z,93.10
2017-08-05T19:01:11.262Z,93.00
2017-08-05T19:03:38.903Z,93.40
2017-08-05T19:06:06.435Z,93.20
2017-08-05T19:08:34.029Z,93.10
2017-08-05T19:11:01.607Z,93.10
2017-08-05T19:13:29.118Z,93.10
2017-08-05T19:15:56.689Z,93.40
2017-08-05T19:18:24.962Z,93.30
2017-08-05T19:20:53.224Z,93.40
2017-08-05T19:23:20.747Z,93.40
2017-08-05T19:25:48.254Z,93.40
2017-08-05T19:28:15.743Z,93.40
2017-08-05T19:30:43.255Z,93.50
2017-08-05T19:33:10.823Z,93.60
2017-08-05T19:35:38.343Z,93.80
2017-08-05T19:38:06.450Z,94.00
2017-08-05T19:40:34.034Z,94.20
2017-08-05T19:43:01.558Z,94.20
2017-08-05T19:45:29.845Z,94.80
2017-08-05T19:47:57.367Z,94.60
2017-08-05T19:50:24.878Z,94.60
2017-08-05T19:52:52.584Z,94.50
2017-08-05T19:55:20.081Z,94.70
2017-08-05T19:57:47.600Z,94.70
2017-08-05T20:00:15.158Z,94.90
2017-08-05T20:02:42.679Z,95.10
2017-08-05T20:05:10.309Z,94.90
2017-08-05T20:07:38.379Z,95.10
2017-08-05T20:10:07.127Z,95.30
2017-08-05T20:12:36.240Z,95.30
2017-08-05T20:15:03.935Z,95.20
2017-08-05T20:17:31.429Z,95.60
2017-08-05T20:19:58.943Z,95.80
2017-08-05T20:22:26.460Z,95.70
2017-08-05T20:24:53.965Z,95.70
2017-08-05T20:27:21.479Z,95.70
2017-08-05T20:29:49.162Z,95.70
2017-08-05T20:32:16.714Z,95.40
2017-08-05T20:34:44.296Z,95.40
2017-08-05T20:37:12.120Z,95.50
2017-08-05T20:39:39.622Z,95.60
2017-08-05T20:42:07.425Z,95.90
2017-08-05T20:44:34.963Z,96.20
2017-08-05T20:47:02.473Z,96.70
2017-08-05T20:49:29.996Z,97.00
2017-08-05T20:51:57.538Z,97.00
2017-08-05T20:54:25.021Z,97.30
2017-08-05T20:56:52.551Z,97.30
2017-08-05T20:59:20.097Z,97.50
2017-08-05T21:01:47.597Z,97.60
2017-08-05T21:04:15.149Z,98.00
2017-08-05T21:06:42.650Z,98.30
2017-08-05T21:09:10.270Z,98.60
2017-08-05T21:11:37.755Z,98.80
2017-08-05T21:14:05.259Z,98.90
2017-08-05T21:16:32.764Z,99.10
2017-08-05T21:19:01.044Z,98.90
2017-08-05T21:21:29.332Z,99.00
2017-08-05T21:23:57.643Z,98.80
2017-08-05T21:26:25.267Z,98.70
2017-08-05T21:28:53.557Z,98.20
2017-08-05T21:31:21.054Z,98.20
2017-08-05T21:33:48.557Z,98.40
2017-08-05T21:36:16.065Z,98.40
2017-08-05T21:38:43.549Z,98.20
2017-08-05T21:41:11.098Z,98.10
2017-08-05T21:43:38.608Z,98.10
2017-08-05T21:46:06.137Z,98.00
2017-08-05T21:48:33.652Z,97.90
2017-08-05T21:51:01.215Z,98.00
2017-08-05T21:53:28.722Z,98.20
2017-08-05T21:55:56.225Z,98.20
2017-08-05T21:58:23.750Z,98.20
2017-08-05T22:00:51.281Z,98.20
2017-08-05T22:03:18.792Z,98.30
2017-08-05T22:05:47.158Z,98.20
2017-08-05T22:08:14.648Z,98.30
2017-08-05T22:10:42.194Z,98.30
2017-08-05T22:13:10.581Z,98.40
2017-08-05T22:15:38.129Z,98.50
2017-08-05T22:18:05.664Z,98.60
2017-08-05T22:20:33.193Z,98.70
2017-08-05T22:23:00.679Z,98.80
2017-08-05T22:25:28.175Z,98.70
2017-08-05T22:27:55.698Z,98.80
2017-08-05T22:30:23.521Z,98.80
2017-08-05T22:32:51.059Z,98.80
2017-08-05T22:35:18.591Z,98.90
2017-08-05T22:37:46.865Z,99.20
2017-08-05T22:40:15.136Z,99.40
2017-08-05T22:42:42.655Z,99.20
2017-08-05T22:45:10.181Z,99.30
2017-08-05T22:47:37.706Z,99.50
2017-08-05T22:50:06.048Z,99.60
2017-08-05T22:52:33.565Z,99.50
2017-08-05T22:55:01.093Z,99.50
2017-08-05T22:57:32.037Z,99.60
2017-08-05T22:59:59.534Z,99.60
2017-08-05T23:02:27.061Z,99.70
2017-08-05T23:04:54.575Z,99.90
2017-08-05T23:07:22.114Z,99.90
2017-08-05T23:09:49.601Z,99.90
2017-08-05T23:12:17.216Z,99.90
2017-08-05T23:14:45.602Z,99.90
2017-08-05T23:17:13.093Z,99.90
2017-08-05T23:19:40.614Z,99.90
2017-08-05T23:22:08.997Z,99.90
2017-08-05T23:24:36.646Z,99.90
2017-08-05T23:27:04.342Z,99.90
2017-08-05T23:29:31.901Z,99.90
2017-08-05T23:31:59.458Z,99.90
2017-08-05T23:34:27.012Z,99.90
2017-08-05T23:36:55.388Z,99.90
2017-08-05T23:39:22.966Z,99.90
2017-08-05T23:41:50.744Z,99.90
2017-08-05T23:44:18.237Z,99.90
2017-08-05T23:46:45.862Z,99.90
2017-08-05T23:49:13.386Z,99.90
2017-08-05T23:51:41.655Z,99.90
2017-08-05T23:54:09.170Z,99.90
2017-08-05T23:56:36.689Z,99.90
2017-08-05T23:59:04.355Z,99.90
